Clinton, MS (39056)

6:45 PM CST on February 01, 2015 (GMT -0600)
John Bell Williams, Raymond | Change Station
CLOSE
Current Station
Airport
Location: John Bell Williams, Raymond,
Elevation: 246 ft
Nearby Weather Stations

Elev 246 ft 32.30 °N, 90.41 °W | Updated 10 minutes ago

Overcast
Overcast
57 °F
Feels Like 57 °F
N
6
Wind Variable Wind from West

Today
High -- | Low -- °F
--% Chance of Precip.
Yesterday
High -- | Low -- °F
Precip. -- in
6:55 AM 5:34 PM
Waxing Gibbous, 97% visible
Pressure 29.86 in
Visibility 10.0 miles
Clouds Few 1000 ft
Few 1400 ft
Overcast 4500 ft
Dew Point 54 °F
Humidity 88%
Rainfall 1.77 in
Snow Depth Not available.
UV 0 out of 12
Pollen 6.50 out of 12
Air Quality Not available.
Flu Activity Not available.
METAR KJVW 020035Z AUTO 26005KT 10SM FEW010 FEW014 OVC045 14/12 A2986 RMK AO2 LTG DSNT E AND S

More Conditions Fewer Conditions

Pressure 29.86 in
Visibility 10.0 miles
Clouds Few 1000 ft
Few 1400 ft
Overcast 4500 ft
Dew Point 54 °F
Humidity 88%
Rainfall 1.77 in
Snow Depth Not available.
UV 0 out of 12
Pollen 6.50 out of 12
Air Quality Not available.
Flu Activity Not available.
METAR KJVW 020035Z AUTO 26005KT 10SM FEW010 FEW014 OVC045 14/12 A2986 RMK AO2 LTG DSNT E AND S

More Conditions Fewer Conditions

10-Day Weather Forecast

Almanac

Astronomy

Feb. 01, 2015 Rise Set
Actual Time
Civil Twilight
Nautical Twilight
Astronomical Twilight
Moon
Length of Visible Light
Length of Day
Tomorrow will be .
, % of the Moon is Illuminated

Today's Extremes

State Highs State Lows

Community

WunderPhotos

Upload Photos

1,792,637 photos uploaded!

WunderBlogs® & News

Nearby

Air Quality

  Air Quality AQ Index Pollutant
Not available.

Snow Depth

Station Depth Elevation

Earthquake Activity

City Distance Mag. Time & Date
Minimum magnitude displayed is 2.5.

Coastal Water Temperatures

Place Temperature

Nearby Weather Stations